Time;durP1;ratioP1;P1;durP2;ratioP2;P2;SDS_P1;SDS_P2;PMS_P1;PMS_P2;Temp;Humidity;BMP_temperature;BMP_pressure;BME280_temperature;BME280_humidity;BME280_pressure;Samples;Min_cycle;Max_cycle;Signal;HPM_P1;HPM_P2
2021/09/14 00:01:39;;;;;;;5.63;5.05;;;19.80;76.20;;;20.08;59.79;97540.38;4967070;28;20057;-36
2021/09/14 00:04:07;;;;;;;5.93;4.75;;;19.80;76.30;;;20.06;59.77;97536.03;4965953;28;20361;-36
2021/09/14 00:06:39;;;;;;;6.18;4.78;;;19.80;76.20;;;20.08;59.86;97548.47;4966383;28;20058;-36
2021/09/14 00:09:08;;;;;;;6.07;5.05;;;19.90;76.30;;;20.09;59.70;97542.84;4965167;28;20050;-36
2021/09/14 00:11:39;;;;;;;6.80;5.38;;;19.90;76.30;;;20.10;59.99;97549.06;4966741;28;20097;-36
2021/09/14 00:14:07;;;;;;;7.95;4.40;;;19.90;76.50;;;20.06;59.84;97536.03;4966433;28;20054;-36
2021/09/14 00:16:35;;;;;;;6.53;5.13;;;19.90;76.70;;;20.04;59.81;97535.41;4966077;28;20062;-36
2021/09/14 00:19:03;;;;;;;6.25;5.65;;;19.80;76.70;;;20.03;60.16;97532.94;4963949;28;20047;-36
2021/09/14 00:21:31;;;;;;;6.22;4.93;;;19.80;76.90;;;20.02;60.42;97524.00;4967266;28;20054;-36
2021/09/14 00:23:59;;;;;;;6.82;5.13;;;19.80;76.90;;;20.02;60.38;97525.88;4967046;28;20264;-36
2021/09/14 00:26:26;;;;;;;6.25;4.90;;;19.80;76.90;;;20.00;60.33;97526.09;4967192;28;20062;-36
2021/09/14 00:28:54;;;;;;;6.85;4.95;;;19.80;77.00;;;19.99;60.20;97526.34;4965126;28;20750;-36
2021/09/14 00:31:22;;;;;;;7.05;4.70;;;19.80;77.10;;;19.99;60.18;97527.16;4965114;28;20055;-36
2021/09/14 00:33:50;;;;;;;8.13;4.85;;;19.80;77.10;;;20.00;60.53;97531.50;4965523;28;20058;-36
2021/09/14 00:36:18;;;;;;;5.55;4.90;;;19.80;77.00;;;20.02;60.62;97531.28;4965487;28;20066;-36
2021/09/14 00:38:46;;;;;;;5.88;5.22;;;19.80;77.00;;;20.03;60.30;97530.25;4996030;28;20070;-36
2021/09/14 00:41:14;;;;;;;5.95;5.35;;;19.90;77.10;;;20.04;60.33;97532.69;4966940;28;20512;-36
2021/09/14 00:43:53;;;;;;;9.68;5.30;;;19.90;77.00;;;20.03;60.24;97525.66;4965374;28;20333;-36
2021/09/14 00:46:22;;;;;;;5.90;5.30;;;19.80;77.00;;;20.01;60.41;97524.25;4966840;28;20055;-36
2021/09/14 00:48:50;;;;;;;8.25;5.22;;;19.80;77.00;;;20.02;60.45;97525.88;4966532;28;20069;-36
2021/09/14 00:51:18;;;;;;;5.15;4.63;;;19.80;77.10;;;19.99;60.54;97520.94;4965554;28;20061;-36
2021/09/14 00:53:48;;;;;;;7.10;5.25;;;19.80;77.20;;;19.95;60.39;97520.56;4966709;28;20501;-36
2021/09/14 00:56:17;;;;;;;6.13;4.80;;;19.70;77.40;;;19.91;60.38;97516.66;4965220;28;20054;-36
2021/09/14 00:58:45;;;;;;;6.97;5.03;;;19.60;77.60;;;19.87;60.63;97518.13;4964876;28;20045;-36
2021/09/14 01:01:13;;;;;;;6.63;5.35;;;19.60;77.70;;;19.81;60.56;97516.31;4964977;28;20055;-36
2021/09/14 01:03:41;;;;;;;6.63;5.93;;;19.50;78.00;;;19.77;60.53;97520.53;4964918;28;20061;-36
2021/09/14 01:06:09;;;;;;;6.68;5.63;;;19.40;78.10;;;19.70;60.90;97509.78;4980056;28;20365;-36
2021/09/14 01:08:39;;;;;;;6.55;5.22;;;19.40;78.40;;;19.66;60.95;97512.09;4964515;28;20047;-36
2021/09/14 01:11:07;;;;;;;6.95;5.70;;;19.40;78.60;;;19.63;61.02;97509.00;4967548;28;20062;-36
2021/09/14 01:13:34;;;;;;;5.70;5.07;;;19.30;78.80;;;19.59;61.02;97514.03;4980107;28;20456;-36
2021/09/14 01:16:11;;;;;;;9.43;5.35;;;19.30;79.10;;;19.59;61.13;97505.09;4965907;28;20071;-36
2021/09/14 01:18:41;;;;;;;8.10;5.53;;;19.30;79.20;;;19.58;61.33;97511.53;4964427;28;20348;-36
2021/09/14 01:21:09;;;;;;;8.10;5.50;;;19.30;79.00;;;19.56;61.28;97503.69;4983877;28;20186;-36
2021/09/14 01:23:37;;;;;;;9.23;5.82;;;19.40;78.80;;;19.59;61.36;97508.63;4985892;28;20058;-36
2021/09/14 01:26:05;;;;;;;7.18;5.85;;;19.40;78.90;;;19.59;61.43;97495.13;4969043;28;20241;-36
2021/09/14 01:28:33;;;;;;;8.27;5.88;;;19.40;78.80;;;19.57;61.30;97499.91;4968566;28;20054;-36
2021/09/14 01:31:02;;;;;;;7.88;6.15;;;19.40;78.80;;;19.57;61.25;97499.09;4983418;28;20061;-36
2021/09/14 01:33:31;;;;;;;7.30;5.65;;;19.40;78.80;;;19.56;61.49;97500.97;4983294;28;20055;-36
2021/09/14 01:36:01;;;;;;;7.07;5.43;;;19.40;78.70;;;19.55;61.39;97501.19;4984174;28;20058;-36
2021/09/14 01:38:30;;;;;;;9.05;5.82;;;19.30;78.80;;;19.53;61.56;97500.59;4981068;28;20054;-36
2021/09/14 01:40:57;;;;;;;6.45;5.68;;;19.30;79.00;;;19.46;61.42;97501.47;4970029;28;20050;-36
2021/09/14 01:43:25;;;;;;;7.55;5.90;;;19.20;79.20;;;19.42;61.62;97504.84;4968405;28;20050;-36
2021/09/14 01:45:54;;;;;;;7.70;5.45;;;19.10;79.50;;;19.40;61.56;97504.22;4984733;28;20055;-36
2021/09/14 01:48:24;;;;;;;6.97;5.47;;;19.10;79.40;;;19.38;61.58;97501.75;4969123;28;20054;-36
2021/09/14 01:50:53;;;;;;;6.57;5.57;;;19.10;79.40;;;19.33;61.59;97503.44;4966322;28;20398;-36
2021/09/14 01:53:24;;;;;;;8.20;5.72;;;19.00;79.60;;;19.27;61.70;97507.88;4983850;28;20063;-36
2021/09/14 01:55:54;;;;;;;6.60;5.18;;;18.90;80.10;;;19.21;61.89;97501.50;4967329;28;20261;-36
2021/09/14 01:58:23;;;;;;;6.05;4.93;;;18.90;80.40;;;19.20;61.75;97507.09;5000438;28;20059;-36
2021/09/14 02:01:04;;;;;;;8.18;5.50;;;18.90;80.40;;;19.18;61.85;97501.91;4999986;28;20058;-36
2021/09/14 02:08:48;;;;;;;7.18;5.38;;;18.80;80.20;;;19.08;62.02;97506.97;4982631;28;20142;-36
2021/09/14 03:01:00;;;;;;;7.57;5.85;;;18.50;81.20;;;18.73;62.62;97495.75;4983404;28;20062;-36
2021/09/14 03:03:30;;;;;;;6.80;5.80;;;18.50;81.60;;;18.70;62.85;97487.06;4967270;28;20309;-36
2021/09/14 03:05:58;;;;;;;11.85;7.07;;;18.50;81.70;;;18.73;62.90;97487.66;4967376;28;20410;-36
2021/09/14 03:08:26;;;;;;;7.80;6.97;;;18.50;81.80;;;18.73;63.04;97487.66;4966938;28;20050;-36
2021/09/14 03:10:54;;;;;;;6.68;5.97;;;18.50;82.10;;;18.72;63.07;97483.34;4968378;28;20366;-36
2021/09/14 03:13:25;;;;;;;6.40;5.80;;;18.50;82.30;;;18.73;62.96;97483.13;4967129;28;20046;-36
2021/09/14 03:15:53;;;;;;;7.70;6.90;;;18.50;82.30;;;18.74;63.18;97481.25;4966265;28;20042;-36
2021/09/14 03:18:21;;;;;;;7.32;6.55;;;18.50;82.40;;;18.73;63.19;97477.72;4981886;28;20058;-36
2021/09/14 03:20:49;;;;;;;7.18;6.35;;;18.50;82.60;;;18.74;63.23;97482.06;4997463;28;20062;-36
2021/09/14 03:23:17;;;;;;;8.15;6.72;;;18.50;82.60;;;18.74;63.31;97479.38;4967279;28;20047;-36
2021/09/14 03:25:44;;;;;;;7.85;6.25;;;18.50;82.60;;;18.74;63.44;97471.28;4998600;28;20053;-36
2021/09/14 03:28:13;;;;;;;6.95;6.28;;;18.50;82.70;;;18.72;63.30;97477.94;4967287;28;20533;-36
2021/09/14 03:30:41;;;;;;;7.32;6.25;;;18.50;82.90;;;18.68;63.55;97477.53;4969938;28;20368;-36
2021/09/14 03:33:09;;;;;;;7.70;6.72;;;18.40;83.10;;;18.65;63.64;97481.50;4982991;28;20244;-36
2021/09/14 03:35:39;;;;;;;8.73;7.88;;;18.40;83.40;;;18.63;63.73;97477.34;4964773;28;20050;-36
2021/09/14 03:38:07;;;;;;;7.88;6.35;;;18.40;83.70;;;18.61;63.79;97482.13;4982565;28;20077;-36
2021/09/14 03:40:35;;;;;;;10.10;7.22;;;18.40;83.90;;;18.60;63.83;97478.63;4998494;28;20078;-36
2021/09/14 03:43:03;;;;;;;7.85;6.93;;;18.30;83.90;;;18.59;63.93;97477.00;4997816;28;20058;-36
2021/09/14 03:45:31;;;;;;;7.15;6.40;;;18.30;84.10;;;18.58;63.86;97474.50;4966476;28;20059;-36
2021/09/14 03:47:59;;;;;;;7.57;6.70;;;18.30;84.20;;;18.55;63.97;97469.53;4982717;28;20051;-36
2021/09/14 03:50:27;;;;;;;9.65;7.10;;;18.30;84.60;;;18.54;64.03;97473.28;4981389;28;20276;-36
2021/09/14 03:52:54;;;;;;;9.90;7.35;;;18.20;84.80;;;18.51;64.08;97477.22;4966164;28;20054;-36
2021/09/14 03:55:22;;;;;;;8.07;6.57;;;18.20;84.90;;;18.50;64.21;97472.88;4966893;28;20670;-36
2021/09/14 03:57:52;;;;;;;8.35;7.32;;;18.20;85.00;;;18.49;64.21;97471.22;4965616;28;20059;-36
2021/09/14 04:00:20;;;;;;;10.95;7.38;;;18.20;84.90;;;18.51;64.26;97469.13;4965092;28;20074;-36
2021/09/14 04:10:44;;;;;;;8.98;8.07;;;18.20;84.90;;;18.52;64.21;97472.69;4982315;28;20248;-36
2021/09/14 04:13:16;;;;;;;9.93;6.97;;;18.30;85.30;;;18.53;64.34;97467.03;4996420;28;20252;-36
2021/09/14 04:15:45;;;;;;;10.45;8.57;;;18.30;84.80;;;18.54;64.11;97468.72;4964347;28;20062;-36
2021/09/14 04:18:12;;;;;;;11.00;8.60;;;18.40;84.30;;;18.55;64.01;97473.06;4964773;28;20762;-36
2021/09/14 04:20:40;;;;;;;10.15;9.15;;;18.40;84.10;;;18.56;63.96;97472.03;4966864;28;20280;-36
2021/09/14 04:23:09;;;;;;;9.63;8.73;;;18.40;83.90;;;18.56;63.91;97468.50;4965553;28;20038;-36
2021/09/14 04:25:37;;;;;;;9.55;7.75;;;18.40;83.80;;;18.57;63.85;97473.69;4965489;28;20063;-36
2021/09/14 04:28:05;;;;;;;8.32;6.95;;;18.40;83.70;;;18.55;63.83;97474.94;4966494;28;20047;-36
2021/09/14 04:30:33;;;;;;;10.68;7.85;;;18.30;83.80;;;18.52;63.98;97469.97;4966395;28;20059;-36
2021/09/14 04:33:01;;;;;;;8.70;7.18;;;18.30;84.00;;;18.51;63.82;97474.53;4965609;28;20059;-36
2021/09/14 04:35:29;;;;;;;9.63;7.32;;;18.30;84.00;;;18.47;63.95;97470.63;4965173;28;20150;-36
2021/09/14 04:37:57;;;;;;;9.55;7.53;;;18.20;83.80;;;18.35;64.03;97472.34;4979446;28;20272;-36
2021/09/14 04:40:26;;;;;;;9.27;8.43;;;18.10;84.50;;;18.30;64.19;97473.81;4998916;28;20055;-36
2021/09/14 04:42:54;;;;;;;11.77;9.57;;;18.00;85.00;;;18.29;64.35;97469.47;4981808;28;20058;-36
2021/09/14 04:45:22;;;;;;;11.50;8.20;;;18.00;84.80;;;18.31;64.39;97466.56;4965234;28;20062;-36
2021/09/14 04:47:50;;;;;;;10.35;8.70;;;18.10;84.70;;;18.33;64.50;97458.25;4967131;28;20065;-36
2021/09/14 04:50:18;;;;;;;8.40;7.50;;;18.20;84.60;;;18.34;64.33;97466.13;4963549;28;20369;-36
2021/09/14 04:52:46;;;;;;;8.88;7.88;;;18.20;84.50;;;18.35;64.28;97466.97;4965366;28;20065;-36
2021/09/14 04:55:14;;;;;;;12.80;8.55;;;18.20;84.50;;;18.34;64.31;97476.06;4964647;28;20051;-36
2021/09/14 04:57:42;;;;;;;11.82;7.93;;;18.20;84.40;;;18.28;64.18;97475.91;4969438;28;20257;-36
2021/09/14 05:00:12;;;;;;;10.20;7.80;;;18.00;84.20;;;18.21;64.24;97480.50;4984108;28;20073;-36
2021/09/14 05:02:40;;;;;;;10.63;7.95;;;18.00;84.50;;;18.21;64.35;97479.66;4984877;28;20061;-36
2021/09/14 05:05:09;;;;;;;9.48;7.05;;;18.00;84.70;;;18.19;64.35;97479.06;4970191;28;20047;-36
2021/09/14 05:07:37;;;;;;;11.35;8.13;;;18.00;84.80;;;18.14;64.39;97473.47;4984532;28;20063;-36
2021/09/14 05:10:07;;;;;;;10.57;8.27;;;17.90;85.10;;;18.10;64.65;97473.88;4968209;28;20064;-36
2021/09/14 05:12:39;;;;;;;9.13;7.40;;;17.80;85.50;;;18.03;64.72;97473.09;4968212;28;20265;-36
2021/09/14 05:15:08;;;;;;;8.48;6.90;;;17.70;86.00;;;18.01;64.77;97471.66;4968826;28;20368;-35
2021/09/14 05:17:55;;;;;;;8.38;6.97;;;17.70;86.70;;;17.99;64.96;97471.88;4971688;28;20061;-35
2021/09/14 05:20:47;;;;;;;9.60;7.85;;;17.70;86.80;;;18.00;64.94;97470.81;4968665;28;20294;-36
2021/09/14 05:23:16;;;;;;;8.20;6.63;;;17.80;86.80;;;18.00;64.84;97473.53;4968277;28;20069;-36
2021/09/14 05:25:45;;;;;;;9.80;6.93;;;17.70;86.40;;;18.03;64.87;97474.94;4968809;28;20053;-35
2021/09/14 05:28:14;;;;;;;7.82;6.32;;;17.70;86.40;;;18.02;64.73;97476.81;4969376;28;20360;-35
2021/09/14 05:30:45;;;;;;;8.15;7.03;;;17.70;86.30;;;18.00;64.89;97478.09;4969703;28;20449;-36
2021/09/14 05:33:14;;;;;;;8.07;7.28;;;17.80;86.50;;;18.00;64.82;97487.00;4967273;28;20056;-35
2021/09/14 05:35:51;;;;;;;9.70;6.05;;;17.70;86.60;;;18.01;65.02;97485.97;4967514;28;20209;-36
2021/09/14 05:38:23;;;;;;;9.90;6.55;;;17.70;86.80;;;18.02;65.04;97493.00;4984806;28;20383;-35
2021/09/14 05:40:57;;;;;;;9.00;7.20;;;17.70;86.70;;;18.03;65.17;97489.28;4984212;28;20093;-36
2021/09/14 05:43:29;;;;;;;7.82;6.55;;;17.80;86.70;;;18.05;65.15;97489.88;4984812;28;20086;-36
2021/09/14 05:46:04;;;;;;;8.15;6.75;;;17.80;86.70;;;18.12;65.26;97489.03;5000407;28;20058;-36
2021/09/14 05:48:34;;;;;;;8.30;7.22;;;17.90;86.80;;;18.15;65.28;97489.44;4982893;28;20061;-36
2021/09/14 05:51:03;;;;;;;7.07;6.38;;;17.90;86.80;;;18.21;65.39;97491.25;4966842;28;20069;-36
2021/09/14 05:53:38;;;;;;;7.90;6.32;;;18.10;86.60;;;18.23;65.28;97491.88;4983647;28;20056;-36
2021/09/14 05:56:06;;;;;;;9.60;6.47;;;18.10;86.50;;;18.26;65.29;97486.06;4969303;28;20054;-35
2021/09/14 05:58:34;;;;;;;9.52;7.82;;;18.10;86.40;;;18.28;65.23;97485.84;4982092;28;20234;-36
2021/09/14 06:01:03;;;;;;;8.23;7.07;;;18.20;86.50;;;18.26;65.27;97502.25;4997856;28;20214;-36
2021/09/14 06:03:33;;;;;;;11.38;8.10;;;18.10;86.50;;;18.23;65.36;97493.75;4966724;28;20051;-36
2021/09/14 06:06:07;;;;;;;8.40;7.20;;;18.10;86.90;;;18.28;65.48;97493.91;4983095;28;20077;-36
2021/09/14 06:08:35;;;;;;;7.68;6.88;;;18.10;86.90;;;18.33;65.42;97499.50;4983028;28;20094;-36
2021/09/14 06:11:03;;;;;;;8.73;7.13;;;18.20;86.50;;;18.37;65.50;97494.50;4966690;28;20058;-36
2021/09/14 06:13:31;;;;;;;11.20;7.88;;;18.30;86.50;;;18.40;65.41;97494.09;4982326;28;20058;-35
2021/09/14 06:15:59;;;;;;;8.98;6.60;;;18.30;86.40;;;18.45;65.34;97487.00;4998659;28;20059;-36
2021/09/14 06:18:27;;;;;;;9.65;7.65;;;18.30;86.30;;;18.53;65.44;97482.41;4967298;28;20057;-36
2021/09/14 06:20:55;;;;;;;8.13;7.32;;;18.50;86.10;;;18.60;65.43;97491.28;4969354;28;20055;-35
2021/09/14 06:23:25;;;;;;;13.52;7.90;;;18.50;86.00;;;18.65;65.26;97505.78;4983644;28;20055;-36
2021/09/14 06:25:55;;;;;;;8.93;7.25;;;18.60;85.90;;;18.70;65.43;97497.84;4981672;28;20063;-36
2021/09/14 06:28:24;;;;;;;9.60;7.43;;;18.70;85.90;;;18.74;65.21;97494.72;4983880;28;20050;-36
2021/09/14 06:30:52;;;;;;;7.38;6.28;;;18.80;85.70;;;18.79;65.39;97497.59;4967495;28;20268;-36
2021/09/14 06:33:24;;;;;;;11.20;7.65;;;18.80;85.60;;;18.81;65.16;97499.06;4981619;28;20062;-36
2021/09/14 06:35:54;;;;;;;9.70;7.75;;;18.80;85.70;;;18.84;65.36;97485.16;4998501;28;20410;-36
2021/09/14 06:38:28;;;;;;;8.70;7.80;;;18.80;85.70;;;18.87;65.28;97498.19;4983107;28;20063;-36
2021/09/14 06:40:55;;;;;;;8.15;6.65;;;18.90;85.80;;;18.92;65.28;97505.66;4993498;28;20067;-36
2021/09/14 06:43:29;;;;;;;10.38;7.88;;;18.90;85.60;;;18.95;65.32;97502.50;4964830;28;20050;-36
2021/09/14 06:46:09;;;;;;;12.45;8.48;;;18.90;85.80;;;18.99;65.62;97503.72;4963912;28;20280;-36
2021/09/14 06:48:45;;;;;;;10.38;7.95;;;18.90;85.90;;;19.03;65.74;97507.63;4965408;28;20055;-36
2021/09/14 06:51:13;;;;;;;8.55;7.40;;;19.00;86.10;;;19.08;65.66;97504.28;4964402;28;20382;-36
2021/09/14 06:53:40;;;;;;;11.23;7.22;;;19.00;86.30;;;19.10;65.66;97502.19;4966437;28;20054;-35
2021/09/14 06:56:08;;;;;;;9.00;7.07;;;19.10;86.60;;;19.14;65.63;97505.28;4966439;28;20051;-35
2021/09/14 06:58:40;;;;;;;10.43;7.88;;;19.10;86.50;;;19.17;65.60;97508.34;4986917;28;20059;-36
2021/09/14 07:01:08;;;;;;;9.00;7.88;;;19.10;86.50;;;19.21;65.76;97509.59;4966585;28;20050;-36
2021/09/14 07:03:39;;;;;;;10.82;8.73;;;19.20;86.50;;;19.26;65.95;97512.44;4964271;28;20053;-36
2021/09/14 07:06:06;;;;;;;12.50;8.10;;;19.30;86.50;;;19.31;65.73;97511.78;4963660;28;20054;-35
2021/09/14 07:08:34;;;;;;;8.63;6.45;;;19.30;86.20;;;19.34;65.42;97515.91;4966163;28;20233;-36
2021/09/14 07:11:02;;;;;;;11.60;6.60;;;19.30;85.90;;;19.37;65.41;97515.47;4967653;28;20058;-36
2021/09/14 07:13:30;;;;;;;7.20;6.43;;;19.40;85.40;;;19.41;65.14;97514.00;4997853;28;20248;-36
2021/09/14 07:16:01;;;;;;;8.98;6.78;;;19.50;85.00;;;19.46;65.04;97522.22;4967114;28;20252;-36
2021/09/14 07:18:29;;;;;;;9.77;6.28;;;19.50;84.80;;;19.50;65.25;97518.03;4967245;28;20065;-35
2021/09/14 07:20:58;;;;;;;7.75;5.95;;;19.50;84.70;;;19.55;65.12;97515.50;4967063;28;20046;-35
2021/09/14 07:23:26;;;;;;;8.10;6.63;;;19.60;84.40;;;19.60;65.24;97520.22;4966252;28;20525;-36
2021/09/14 07:25:54;;;;;;;8.85;6.53;;;19.70;84.30;;;19.64;64.99;97516.06;4967610;28;20054;-36
2021/09/14 07:28:24;;;;;;;7.13;5.82;;;19.70;84.10;;;19.68;64.59;97509.16;4965376;28;20081;-36
2021/09/14 07:30:52;;;;;;;9.35;5.97;;;19.80;83.70;;;19.74;64.37;97505.59;4998382;28;20059;-36
2021/09/14 07:33:20;;;;;;;8.70;5.90;;;19.80;83.50;;;19.79;64.33;97503.06;4966753;28;20233;-36
2021/09/14 07:35:47;;;;;;;8.85;6.28;;;19.90;83.30;;;19.83;64.67;97506.13;4966130;28;20242;-36
2021/09/14 07:38:15;;;;;;;8.05;6.50;;;19.90;83.10;;;19.89;64.33;97504.41;4966946;28;20046;-36
2021/09/14 07:40:44;;;;;;;10.32;6.10;;;20.00;82.70;;;19.94;64.41;97518.06;4967131;28;20064;-36
2021/09/14 07:43:12;;;;;;;10.35;6.90;;;20.00;82.70;;;19.98;64.07;97520.09;4965878;28;20046;-36
2021/09/14 07:45:40;;;;;;;7.43;6.28;;;20.10;82.80;;;20.03;64.01;97514.84;4966349;28;20047;-36
2021/09/14 07:48:08;;;;;;;7.82;6.38;;;20.20;82.60;;;20.06;63.85;97516.28;4964738;28;20534;-36
2021/09/14 07:50:36;;;;;;;10.23;5.95;;;20.20;82.50;;;20.11;64.08;97523.72;4966083;28;20240;-36
2021/09/14 07:53:04;;;;;;;7.28;6.07;;;20.20;82.40;;;20.15;63.71;97523.03;4966717;28;20065;-36
2021/09/14 07:55:32;;;;;;;6.78;6.05;;;20.30;82.40;;;20.17;63.95;97526.34;4966547;28;20062;-36
2021/09/14 07:58:00;;;;;;;10.65;6.82;;;20.30;82.50;;;20.22;64.25;97515.69;4965549;28;20357;-36
2021/09/14 08:00:28;;;;;;;7.88;6.60;;;20.40;82.40;;;20.27;63.90;97523.91;4963393;28;20053;-36
2021/09/14 08:02:58;;;;;;;9.13;6.80;;;20.40;82.20;;;20.30;63.88;97521.81;4966802;28;20310;-36
2021/09/14 08:05:27;;;;;;;9.18;6.43;;;20.40;82.10;;;20.33;64.06;97527.59;4964462;28;20345;-36
2021/09/14 08:07:55;;;;;;;6.93;5.10;;;20.50;82.10;;;20.39;63.94;97531.28;4966311;28;20218;-36
2021/09/14 08:10:23;;;;;;;6.75;5.65;;;20.50;82.00;;;20.44;63.65;97531.44;4965674;28;20051;-36
2021/09/14 08:12:51;;;;;;;7.03;5.43;;;20.60;81.70;;;20.46;63.61;97538.25;4965956;28;20066;-36
2021/09/14 08:15:19;;;;;;;6.40;5.00;;;20.60;81.50;;;20.47;63.16;97530.97;4964840;28;20061;-36
2021/09/14 08:17:47;;;;;;;7.13;5.60;;;20.60;81.10;;;20.50;63.34;97537.81;4967462;28;20353;-36
2021/09/14 08:20:15;;;;;;;6.07;5.47;;;20.60;81.00;;;20.47;63.03;97528.25;4963032;28;20054;-36
2021/09/14 08:22:43;;;;;;;7.82;5.80;;;20.60;80.80;;;20.51;62.90;97540.28;4965492;28;20058;-36
2021/09/14 08:25:11;;;;;;;5.45;4.95;;;20.60;80.90;;;20.56;63.03;97531.50;4965166;28;20059;-36
2021/09/14 08:27:41;;;;;;;6.18;5.25;;;20.70;81.00;;;20.59;63.14;97529.19;4965060;28;20055;-36
2021/09/14 08:30:12;;;;;;;7.57;6.20;;;20.70;80.90;;;20.62;62.88;97528.72;4962851;28;20055;-36
2021/09/14 08:32:40;;;;;;;7.20;5.68;;;20.80;80.90;;;20.63;62.86;97526.84;4966112;28;20049;-36
2021/09/14 08:35:09;;;;;;;8.23;6.13;;;20.80;80.60;;;20.63;62.85;97530.38;4964967;28;20054;-36
2021/09/14 08:37:37;;;;;;;6.00;5.40;;;20.80;81.10;;;20.67;63.29;97525.34;4965524;28;20462;-36
2021/09/14 08:40:05;;;;;;;7.57;5.43;;;20.70;81.30;;;20.71;62.86;97529.25;4964713;28;20512;-36
2021/09/14 08:42:37;;;;;;;7.82;6.38;;;20.80;81.00;;;20.71;63.52;97528.41;4964449;28;20256;-36
2021/09/14 08:45:09;;;;;;;9.90;6.40;;;20.80;81.70;;;20.74;64.12;97534.16;4963130;28;20055;-36
2021/09/14 08:47:38;;;;;;;8.23;5.32;;;20.80;82.20;;;20.78;63.93;97542.66;4966073;28;20054;-36
2021/09/14 08:50:08;;;;;;;7.50;6.05;;;20.90;82.20;;;20.83;63.73;97537.41;4963477;28;20051;-36
2021/09/14 08:52:36;;;;;;;9.15;6.25;;;20.90;81.90;;;20.90;63.86;97526.47;4966859;28;20051;-36
2021/09/14 08:55:06;;;;;;;7.00;6.28;;;21.00;81.80;;;20.94;63.89;97514.97;4965954;28;20236;-36
2021/09/14 08:57:34;;;;;;;8.15;6.70;;;21.10;82.50;;;20.94;63.68;97523.09;4965068;28;20361;-36
2021/09/14 09:00:03;;;;;;;6.75;6.03;;;21.10;82.10;;;20.98;63.77;97526.16;4966614;28;20046;-36
2021/09/14 09:02:31;;;;;;;9.57;6.75;;;21.20;81.90;;;20.95;63.60;97518.50;4965422;28;20261;-36
2021/09/14 09:05:05;;;;;;;7.00;5.95;;;21.10;81.90;;;21.00;63.79;97516.75;4965388;28;20055;-36
2021/09/14 09:07:37;;;;;;;8.00;6.07;;;21.20;81.60;;;21.08;63.48;97520.19;4965297;28;20264;-36
2021/09/14 09:10:16;;;;;;;9.80;6.40;;;21.20;81.80;;;21.12;63.62;97521.38;4966673;28;20054;-36
2021/09/14 09:12:49;;;;;;;8.10;7.30;;;21.30;81.80;;;21.18;63.57;97525.84;4965450;28;20063;-36
2021/09/14 09:15:33;;;;;;;8.48;5.95;;;21.30;81.30;;;21.24;63.85;97524.91;4966480;28;20058;-36
2021/09/14 09:18:12;;;;;;;8.25;5.65;;;21.50;81.60;;;21.33;63.48;97522.72;4965264;28;20054;-36
2021/09/14 09:20:41;;;;;;;8.80;6.30;;;21.50;80.80;;;;;;4965239;28;20086;-36
2021/09/14 09:23:26;;;;;;;8.18;6.43;;;21.60;80.30;;;21.44;63.33;97519.19;4964724;28;20050;-36
2021/09/14 09:26:08;;;;;;;6.85;5.93;;;21.60;80.40;;;21.48;62.95;97523.13;4965315;28;20074;-36
2021/09/14 09:28:37;;;;;;;7.50;5.80;;;21.70;80.30;;;21.54;63.32;97529.44;4965296;28;20059;-36
2021/09/14 09:31:09;;;;;;;8.73;6.60;;;21.80;80.80;;;21.58;62.97;97527.94;4964231;28;20360;-36
2021/09/14 09:33:38;;;;;;;7.22;6.53;;;21.80;80.20;;;21.61;62.92;97530.16;4965486;28;20059;-36
2021/09/14 09:36:09;;;;;;;6.93;5.93;;;21.80;80.20;;;21.64;62.80;97532.41;4965735;28;20055;-36
2021/09/14 09:38:51;;;;;;;8.45;5.90;;;21.80;80.00;;;21.70;62.88;97527.94;4963712;28;20073;-36
2021/09/14 09:41:20;;;;;;;6.75;6.03;;;21.90;79.60;;;21.78;62.38;97533.00;4966261;28;20429;-36
2021/09/14 09:43:48;;;;;;;8.32;5.43;;;22.00;79.80;;;21.83;62.26;97533.94;4968357;28;20055;-36
2021/09/14 09:46:21;;;;;;;10.52;6.43;;;22.00;79.50;;;21.82;61.96;97536.91;4969467;28;20054;-36
2021/09/14 09:48:49;;;;;;;9.98;6.20;;;22.00;79.20;;;21.86;61.96;97532.66;4969521;28;20053;-36
2021/09/14 09:51:17;;;;;;;6.32;5.38;;;22.00;79.30;;;21.89;61.90;97534.03;4967756;28;20064;-36
2021/09/14 09:53:46;;;;;;;8.75;6.25;;;22.10;79.00;;;21.95;62.03;97535.84;4969935;28;20067;-36
2021/09/14 09:56:15;;;;;;;7.30;5.93;;;22.20;78.90;;;21.96;61.70;97535.56;4967351;28;20378;-36
2021/09/14 09:58:46;;;;;;;7.78;5.43;;;22.20;78.50;;;21.98;61.32;97536.19;4967258;28;20070;-36
2021/09/14 10:01:21;;;;;;;5.45;4.85;;;22.20;77.90;;;22.00;61.31;97533.22;4967951;28;20061;-36
2021/09/14 10:04:08;;;;;;;9.05;6.80;;;22.20;77.80;;;22.02;61.33;97534.66;4966250;28;20059;-36
2021/09/14 10:06:44;;;;;;;8.73;6.53;;;22.20;77.80;;;22.07;61.20;97520.38;4966588;28;20057;-36
2021/09/14 10:09:12;;;;;;;7.10;5.93;;;22.30;77.00;;;22.12;61.12;97525.06;4966163;28;20073;-36
2021/09/14 10:11:41;;;;;;;8.15;6.30;;;22.30;77.70;;;22.15;61.45;97521.91;4968702;28;20045;-36
2021/09/14 10:14:16;;;;;;;7.72;5.63;;;22.40;77.80;;;22.19;61.10;97529.31;4968594;28;20062;-36
2021/09/14 10:16:49;;;;;;;7.25;6.47;;;22.40;77.00;;;22.25;60.60;97529.44;4967626;28;20086;-36
2021/09/14 10:19:29;;;;;;;8.85;5.75;;;22.50;75.90;;;22.29;60.66;97536.84;4967769;28;20070;-37
2021/09/14 10:22:00;;;;;;;9.18;6.85;;;22.50;75.70;;;22.33;60.32;97534.50;4967976;28;20085;-36
2021/09/14 10:24:29;;;;;;;6.60;5.80;;;22.60;76.10;;;22.38;59.97;97535.44;4966259;28;20248;-37
2021/09/14 10:27:11;;;;;;;6.18;5.18;;;22.70;76.10;;;22.38;59.27;97543.56;4967219;28;20080;-37
2021/09/14 10:29:42;;;;;;;6.78;5.75;;;22.70;74.10;;;22.41;59.31;97534.13;4968985;28;20055;-37
2021/09/14 10:32:14;;;;;;;8.70;4.97;;;22.70;74.40;;;22.47;59.39;97526.91;4969002;28;20053;-36
2021/09/14 10:34:56;;;;;;;6.43;5.15;;;22.80;74.50;;;22.45;57.41;97529.88;4966916;28;20065;-36
2021/09/14 10:37:31;;;;;;;7.80;4.95;;;22.80;71.30;;;22.50;57.56;97529.97;4966846;28;20058;-37
2021/09/14 10:40:14;;;;;;;7.22;5.32;;;22.90;70.80;;;22.53;57.59;97534.94;4967762;28;20065;-36
2021/09/14 10:42:46;;;;;;;7.97;5.65;;;22.80;71.20;;;22.64;58.21;97526.97;4967758;28;20065;-37
2021/09/14 10:45:18;;;;;;;6.15;5.05;;;22.90;72.60;;;22.68;57.68;97518.13;4967804;28;20054;-36
2021/09/14 10:47:48;;;;;;;6.55;5.25;;;23.00;71.70;;;22.75;58.00;97523.41;4968441;28;20042;-37
2021/09/14 10:50:32;;;;;;;6.82;4.65;;;23.10;72.60;;;22.81;57.16;97528.66;4967791;28;20046;-37
2021/09/14 10:53:02;;;;;;;8.10;5.07;;;23.20;69.60;;;22.89;56.58;97527.47;4967021;28;20059;-36
2021/09/14 10:55:31;;;;;;;6.70;4.97;;;23.20;70.70;;;22.95;55.98;97522.94;4967763;28;20054;-36
2021/09/14 10:58:01;;;;;;;5.15;4.53;;;23.20;69.60;;;22.95;55.74;97526.50;4967551;28;20063;-36
2021/09/14 11:00:34;;;;;;;5.82;4.63;;;23.20;69.10;;;23.00;55.62;97533.91;4969357;28;20069;-37
2021/09/14 11:03:06;;;;;;;6.15;4.00;;;23.40;69.30;;;23.07;54.97;97529.19;4966805;28;20053;-37
2021/09/14 11:05:36;;;;;;;6.35;5.75;;;23.50;68.00;;;23.12;53.89;97533.88;4967351;28;20472;-36
2021/09/14 11:08:09;;;;;;;6.47;5.78;;;23.50;66.40;;;23.08;53.50;97527.28;4966629;28;20628;-37
2021/09/14 11:10:43;;;;;;;8.15;5.88;;;23.50;65.00;;;23.12;54.17;97526.53;4967748;28;20069;-36
2021/09/14 11:13:31;;;;;;;6.97;5.88;;;23.60;65.80;;;23.14;53.99;97532.56;4967750;28;20059;-36
2021/09/14 11:16:04;;;;;;;9.00;6.20;;;23.70;65.50;;;23.27;54.33;97531.44;4966552;28;20353;-36
2021/09/14 11:18:34;;;;;;;6.78;5.35;;;23.70;66.60;;;23.35;55.11;97522.06;4967598;28;20584;-36
2021/09/14 11:21:11;;;;;;;8.82;5.28;;;23.80;67.60;;;23.39;54.27;97528.63;4967853;28;20297;-36
2021/09/14 11:23:43;;;;;;;6.85;5.05;;;23.80;66.80;;;23.48;54.67;97526.34;4966869;28;20062;-36
2021/09/14 11:26:15;;;;;;;5.50;4.85;;;23.80;67.30;;;23.51;54.18;97528.53;4967330;28;20055;-37
2021/09/14 11:28:55;;;;;;;5.65;5.13;;;23.90;66.40;;;23.59;54.19;97528.97;4966918;28;20058;-37
2021/09/14 11:31:26;;;;;;;6.05;5.07;;;23.90;66.00;;;23.65;54.54;97524.44;4967769;28;20057;-37
2021/09/14 11:33:54;;;;;;;6.07;4.80;;;24.00;67.60;;;23.70;54.24;97532.66;4965160;28;20063;-36